createdAt,value
2019-05-29T00:00:30.699Z,1.80
2019-05-29T00:01:30.723Z,2.50
2019-05-29T00:02:30.761Z,3.80
2019-05-29T00:03:30.719Z,4.80
2019-05-29T00:04:30.800Z,3.30
2019-05-29T00:05:30.834Z,2.10
2019-05-29T00:06:30.766Z,1.50
2019-05-29T00:07:30.810Z,2.00
2019-05-29T00:08:30.858Z,4.80
2019-05-29T00:09:30.796Z,3.10
2019-05-29T00:10:30.859Z,2.10
2019-05-29T00:11:30.892Z,1.80
2019-05-29T00:12:30.822Z,1.10
2019-05-29T00:13:30.867Z,2.90
2019-05-29T00:14:30.877Z,3.60
2019-05-29T00:15:30.842Z,3.00
2019-05-29T00:16:30.914Z,2.60
2019-05-29T00:17:30.954Z,1.80
2019-05-29T00:18:30.874Z,1.40
2019-05-29T00:19:30.916Z,1.80
2019-05-29T00:20:30.967Z,5.20
2019-05-29T00:21:30.888Z,2.10
2019-05-29T00:22:30.963Z,2.30
2019-05-29T00:23:31.002Z,2.20
2019-05-29T00:24:30.987Z,3.50
2019-05-29T00:25:30.953Z,1.80
2019-05-29T00:26:30.976Z,1.50
2019-05-29T00:27:30.939Z,1.60
2019-05-29T00:28:31.020Z,2.60
2019-05-29T00:29:31.038Z,2.20
2019-05-29T00:30:31.009Z,3.90
2019-05-29T00:31:31.031Z,4.30
2019-05-29T00:32:31.160Z,2.20
2019-05-29T00:33:31.114Z,3.80
2019-05-29T00:34:31.178Z,3.90
2019-05-29T00:35:31.155Z,2.10
2019-05-29T00:36:31.106Z,1.80
2019-05-29T00:37:31.161Z,4.00
2019-05-29T00:38:31.196Z,2.10
2019-05-29T00:39:31.159Z,4.90
2019-05-29T00:40:31.205Z,2.70
2019-05-29T00:41:31.226Z,3.60
2019-05-29T00:42:31.158Z,1.40
2019-05-29T00:43:31.224Z,4.10
2019-05-29T00:44:34.425Z,3.60
2019-05-29T00:45:31.234Z,3.50
2019-05-29T00:46:31.255Z,2.20
2019-05-29T00:47:31.280Z,4.00
2019-05-29T00:48:31.230Z,3.30
2019-05-29T00:49:31.274Z,2.00
2019-05-29T00:50:31.312Z,2.00
2019-05-29T00:51:31.256Z,3.70
2019-05-29T00:52:31.300Z,1.90
2019-05-29T00:53:31.283Z,3.30
2019-05-29T00:54:31.234Z,3.80
2019-05-29T00:55:31.275Z,2.60
2019-05-29T00:56:31.308Z,5.00
2019-05-29T00:57:31.249Z,6.50
2019-05-29T00:58:31.300Z,3.80
2019-05-29T00:59:31.301Z,3.90
2019-05-29T01:00:31.249Z,2.80
2019-05-29T01:01:31.316Z,2.40
2019-05-29T01:02:31.329Z,2.80
2019-05-29T01:03:31.253Z,4.20
2019-05-29T01:04:31.313Z,2.60
2019-05-29T01:05:31.324Z,3.50
2019-05-29T01:06:31.248Z,3.00
2019-05-29T01:07:31.297Z,1.80
2019-05-29T01:08:31.338Z,3.20
2019-05-29T01:09:31.273Z,7.00
2019-05-29T01:10:31.304Z,3.00
2019-05-29T01:11:31.287Z,3.70
2019-05-29T01:12:31.265Z,2.90
2019-05-29T01:13:31.301Z,3.20
2019-05-29T01:14:31.330Z,2.80
2019-05-29T01:15:31.268Z,4.70
2019-05-29T01:16:31.308Z,4.00
2019-05-29T01:17:31.309Z,6.30
2019-05-29T01:18:31.262Z,5.30
2019-05-29T01:19:31.344Z,6.90
2019-05-29T01:20:31.321Z,4.70
2019-05-29T01:21:31.288Z,5.10
2019-05-29T01:22:31.307Z,5.70
2019-05-29T01:23:31.333Z,5.50
2019-05-29T01:24:31.267Z,4.10
2019-05-29T01:25:31.290Z,6.00
2019-05-29T01:26:31.335Z,3.40
2019-05-29T01:27:31.288Z,6.30
2019-05-29T01:28:31.327Z,4.20
2019-05-29T01:29:31.346Z,4.80
2019-05-29T01:30:31.271Z,4.10
2019-05-29T01:31:31.316Z,4.20
2019-05-29T01:32:31.341Z,4.10
2019-05-29T01:33:31.286Z,5.70
2019-05-29T01:34:31.339Z,3.80
2019-05-29T01:35:31.314Z,5.60
2019-05-29T01:36:31.264Z,4.00
2019-05-29T01:37:31.306Z,6.90
2019-05-29T01:38:31.336Z,3.80
2019-05-29T01:39:31.323Z,5.60
2019-05-29T01:40:31.341Z,4.10
2019-05-29T01:41:31.297Z,4.20
2019-05-29T01:42:31.344Z,5.60
2019-05-29T01:43:31.321Z,5.10
2019-05-29T01:44:31.352Z,4.50
2019-05-29T01:45:31.309Z,5.10
2019-05-29T01:46:31.326Z,5.50
2019-05-29T01:47:31.307Z,5.80
2019-05-29T01:48:31.338Z,4.40
2019-05-29T01:49:31.329Z,5.50
2019-05-29T01:50:31.359Z,4.80
2019-05-29T01:51:31.302Z,5.00
2019-05-29T01:52:31.343Z,5.40
2019-05-29T01:53:31.341Z,4.60
2019-05-29T01:54:31.295Z,5.50
2019-05-29T01:55:31.330Z,6.20
2019-05-29T01:56:31.343Z,5.10
2019-05-29T01:57:31.302Z,4.80
2019-05-29T01:58:31.359Z,9.30
2019-05-29T01:59:31.362Z,5.50
2019-05-29T02:00:31.299Z,7.00
2019-05-29T02:01:31.341Z,6.40
2019-05-29T02:02:31.384Z,7.10
2019-05-29T02:03:31.387Z,7.00
2019-05-29T02:04:31.367Z,7.70
2019-05-29T02:05:31.368Z,7.20
2019-05-29T02:06:31.294Z,7.60
2019-05-29T02:07:31.342Z,7.50
2019-05-29T02:08:31.317Z,7.20
2019-05-29T02:09:31.398Z,5.70
2019-05-29T02:10:31.356Z,5.40
2019-05-29T02:11:32.284Z,6.50
2019-05-29T02:12:31.304Z,7.60
2019-05-29T02:13:31.340Z,6.10
2019-05-29T02:14:31.356Z,5.60
2019-05-29T02:15:32.599Z,6.80
2019-05-29T02:16:31.379Z,6.40
2019-05-29T02:17:31.394Z,7.10
2019-05-29T02:18:31.311Z,7.20
2019-05-29T02:19:31.363Z,7.60
2019-05-29T02:20:31.376Z,6.20
2019-05-29T02:21:31.321Z,8.70
2019-05-29T02:22:31.388Z,8.20
2019-05-29T02:23:31.415Z,7.20
2019-05-29T02:24:31.337Z,8.90
2019-05-29T02:25:31.384Z,7.80
2019-05-29T02:26:31.380Z,8.90
2019-05-29T02:27:31.406Z,7.00
2019-05-29T02:28:31.477Z,7.80
2019-05-29T02:29:31.448Z,7.00
2019-05-29T02:30:31.424Z,8.70
2019-05-29T02:31:31.468Z,8.90
2019-05-29T02:32:31.512Z,9.80
2019-05-29T02:33:31.457Z,10.50
2019-05-29T02:34:31.472Z,10.00
2019-05-29T02:35:31.566Z,8.50
2019-05-29T02:36:31.487Z,11.40
2019-05-29T02:37:31.532Z,8.20
2019-05-29T02:38:31.576Z,8.00
2019-05-29T02:39:31.531Z,9.60
2019-05-29T02:40:31.563Z,9.20
2019-05-29T02:41:31.551Z,8.40
2019-05-29T02:42:31.503Z,9.30
2019-05-29T02:43:31.544Z,9.90
2019-05-29T02:44:31.705Z,9.80
2019-05-29T02:45:52.783Z,11.60
2019-05-29T02:46:31.699Z,11.30
2019-05-29T02:47:31.634Z,11.10
2019-05-29T02:48:31.873Z,12.20
2019-05-29T02:49:31.677Z,12.80
2019-05-29T02:50:31.683Z,14.50
2019-05-29T02:51:31.669Z,12.80
2019-05-29T02:52:31.677Z,13.10
2019-05-29T02:53:31.690Z,12.70
2019-05-29T02:54:32.418Z,11.60
2019-05-29T02:55:31.665Z,14.60
2019-05-29T02:56:31.670Z,14.00
2019-05-29T02:57:31.702Z,13.80
2019-05-29T02:58:31.957Z,13.30
2019-05-29T02:59:32.057Z,13.60
2019-05-29T03:00:31.673Z,13.50
2019-05-29T03:01:31.875Z,14.30
2019-05-29T03:02:32.119Z,14.90
2019-05-29T03:03:37.974Z,15.40
2019-05-29T03:04:32.818Z,16.80
2019-05-29T03:05:32.074Z,15.60
2019-05-29T03:06:32.366Z,15.20
2019-05-29T03:07:32.811Z,17.80
2019-05-29T03:08:32.470Z,15.00
2019-05-29T03:09:32.609Z,15.20
2019-05-29T03:10:33.098Z,17.70
2019-05-29T03:11:33.353Z,16.60
2019-05-29T03:12:33.479Z,15.30
2019-05-29T03:13:32.255Z,17.60
2019-05-29T03:14:32.297Z,14.90
2019-05-29T03:15:31.739Z,15.80
2019-05-29T03:16:32.869Z,16.40
2019-05-29T03:17:32.005Z,16.60
2019-05-29T03:18:32.550Z,17.60
2019-05-29T03:19:32.528Z,16.30
2019-05-29T03:20:32.415Z,16.80
2019-05-29T03:21:32.458Z,17.30
2019-05-29T03:22:33.240Z,20.90
2019-05-29T03:23:33.936Z,16.80
2019-05-29T03:24:32.946Z,15.40
2019-05-29T03:25:32.598Z,19.20
2019-05-29T03:26:33.406Z,17.50
2019-05-29T03:27:32.040Z,15.60
2019-05-29T03:28:32.404Z,17.20
2019-05-29T03:29:32.003Z,21.40
2019-05-29T03:30:37.381Z,15.30
2019-05-29T03:31:38.193Z,15.70
2019-05-29T03:32:37.673Z,15.70
2019-05-29T03:33:39.312Z,16.80
2019-05-29T03:34:37.681Z,14.90
2019-05-29T03:35:39.687Z,16.20
2019-05-29T03:36:38.438Z,20.10
2019-05-29T03:37:32.474Z,18.30
2019-05-29T03:38:32.718Z,17.30
2019-05-29T03:39:32.354Z,18.70
2019-05-29T03:40:33.270Z,16.40
2019-05-29T03:41:32.724Z,19.50
2019-05-29T03:42:32.598Z,18.40
2019-05-29T03:43:33.144Z,17.40
2019-05-29T03:44:33.213Z,16.80
2019-05-29T03:45:34.028Z,19.50
2019-05-29T03:46:41.091Z,16.70
2019-05-29T03:47:33.156Z,18.10
2019-05-29T03:48:32.828Z,18.40
2019-05-29T03:49:33.161Z,17.60
2019-05-29T03:50:33.316Z,18.50
2019-05-29T03:51:32.686Z,15.90
2019-05-29T03:52:32.704Z,18.40
2019-05-29T03:53:33.332Z,18.80
2019-05-29T03:54:33.783Z,23.10
2019-05-29T03:55:33.551Z,19.40
2019-05-29T03:56:32.594Z,18.00
2019-05-29T03:57:33.707Z,17.50
2019-05-29T03:58:33.232Z,19.10
2019-05-29T03:59:32.704Z,18.80
2019-05-29T04:00:41.346Z,17.90
2019-05-29T04:01:33.242Z,19.70
2019-05-29T04:02:33.265Z,20.50
2019-05-29T04:03:33.351Z,17.50
2019-05-29T04:04:33.399Z,18.80
2019-05-29T04:05:33.426Z,16.80
2019-05-29T04:06:33.396Z,20.30
2019-05-29T04:07:33.527Z,16.40
2019-05-29T04:08:33.462Z,17.50
2019-05-29T04:09:33.301Z,19.10
2019-05-29T04:10:34.637Z,17.80
2019-05-29T04:11:33.170Z,17.40
2019-05-29T04:12:33.379Z,19.20
2019-05-29T04:13:33.389Z,19.00
2019-05-29T04:14:33.371Z,16.90
2019-05-29T04:15:33.533Z,17.90
2019-05-29T04:16:50.968Z,18.30
2019-05-29T04:17:33.446Z,18.10
2019-05-29T04:18:33.691Z,19.50
2019-05-29T04:19:32.641Z,18.70
2019-05-29T04:20:33.188Z,17.30
2019-05-29T04:21:32.279Z,19.90
2019-05-29T04:22:32.881Z,17.30
2019-05-29T04:23:32.155Z,17.10
2019-05-29T04:24:31.995Z,17.50
2019-05-29T04:25:35.424Z,18.80
2019-05-29T04:26:32.281Z,19.10
2019-05-29T04:27:32.094Z,18.00
2019-05-29T04:28:32.352Z,19.50
2019-05-29T04:29:32.095Z,18.60
2019-05-29T04:30:32.095Z,16.10
2019-05-29T04:31:32.526Z,14.50
2019-05-29T04:32:32.271Z,15.30
2019-05-29T04:33:32.645Z,19.10
2019-05-29T04:34:33.801Z,15.00
2019-05-29T04:35:32.570Z,13.70
2019-05-29T04:36:32.918Z,16.50
2019-05-29T04:37:32.579Z,9.10
2019-05-29T04:38:33.350Z,14.40
2019-05-29T04:39:32.754Z,11.20
2019-05-29T04:40:32.707Z,11.80
2019-05-29T04:41:32.785Z,11.90
2019-05-29T04:42:33.518Z,9.80
2019-05-29T04:43:33.341Z,11.50
2019-05-29T04:44:33.270Z,10.30
2019-05-29T04:45:33.319Z,11.30
2019-05-29T04:46:31.962Z,12.80
2019-05-29T04:47:33.323Z,9.70
2019-05-29T04:48:33.509Z,10.70
2019-05-29T04:49:33.666Z,11.70
2019-05-29T04:50:33.455Z,9.90
2019-05-29T04:51:33.085Z,8.10
2019-05-29T04:52:33.579Z,8.90
2019-05-29T04:53:33.501Z,9.20
2019-05-29T04:54:33.351Z,8.40
2019-05-29T04:55:32.740Z,9.50
2019-05-29T04:56:32.790Z,7.90
2019-05-29T04:57:32.856Z,10.30
2019-05-29T04:58:32.842Z,9.30
2019-05-29T04:59:33.037Z,9.90
2019-05-29T05:00:33.066Z,8.40
2019-05-29T05:01:33.019Z,8.90
2019-05-29T05:02:33.024Z,7.90
2019-05-29T05:03:33.107Z,9.00
2019-05-29T05:04:33.138Z,8.40
2019-05-29T05:05:33.162Z,6.90
2019-05-29T05:06:33.016Z,8.90
2019-05-29T05:07:33.150Z,8.10
2019-05-29T05:08:33.233Z,8.60
2019-05-29T05:09:33.290Z,12.20
2019-05-29T05:10:33.320Z,9.60
2019-05-29T05:11:33.318Z,8.50
2019-05-29T05:12:32.120Z,8.10
2019-05-29T05:13:32.134Z,11.60
2019-05-29T05:14:32.165Z,7.50
2019-05-29T05:15:32.147Z,9.40
2019-05-29T05:16:32.179Z,7.80
2019-05-29T05:17:32.216Z,8.90
2019-05-29T05:18:32.193Z,7.70
2019-05-29T05:19:32.216Z,7.00
2019-05-29T05:20:32.255Z,5.20
2019-05-29T05:21:32.208Z,7.50
2019-05-29T05:22:32.248Z,7.10
2019-05-29T05:23:32.302Z,7.00
2019-05-29T05:24:32.237Z,6.70
2019-05-29T05:25:32.283Z,6.10
2019-05-29T05:26:32.345Z,7.20
2019-05-29T05:27:32.298Z,7.20
2019-05-29T05:28:32.311Z,6.50
2019-05-29T05:29:32.311Z,5.50
2019-05-29T05:30:32.422Z,5.40
2019-05-29T05:31:32.422Z,5.90
2019-05-29T05:32:32.623Z,6.70
2019-05-29T05:33:32.451Z,4.70
2019-05-29T05:34:32.631Z,4.90
2019-05-29T05:35:32.695Z,4.80
2019-05-29T05:36:32.685Z,5.40
2019-05-29T05:37:32.716Z,4.60
2019-05-29T05:38:32.632Z,6.50
2019-05-29T05:39:32.798Z,4.10
2019-05-29T05:40:33.035Z,3.00
2019-05-29T05:41:32.690Z,3.30
2019-05-29T05:42:32.889Z,3.50
2019-05-29T05:43:32.893Z,5.20
2019-05-29T05:44:32.848Z,3.50
2019-05-29T05:45:32.999Z,4.10
2019-05-29T05:46:32.942Z,5.70
2019-05-29T05:47:44.947Z,4.90
2019-05-29T05:48:33.007Z,10.90
2019-05-29T05:49:33.208Z,8.50
2019-05-29T05:50:33.297Z,5.70
2019-05-29T05:51:33.449Z,5.00
2019-05-29T05:52:33.667Z,4.70
2019-05-29T05:53:33.363Z,3.90
2019-05-29T05:54:33.387Z,4.70
2019-05-29T05:55:33.486Z,5.10
2019-05-29T05:56:33.674Z,4.70
2019-05-29T05:57:33.532Z,4.00
2019-05-29T05:58:33.658Z,5.70
2019-05-29T05:59:33.525Z,6.10
2019-05-29T06:00:33.819Z,4.40
2019-05-29T06:01:33.685Z,4.90
2019-05-29T06:02:33.647Z,3.80
2019-05-29T06:03:33.830Z,4.20
2019-05-29T06:04:33.616Z,5.40
2019-05-29T06:05:33.866Z,4.20
2019-05-29T06:06:32.441Z,3.70
2019-05-29T06:07:32.488Z,4.00
2019-05-29T06:08:32.520Z,3.00
2019-05-29T06:09:32.718Z,3.00
2019-05-29T06:10:32.490Z,3.80
2019-05-29T06:11:32.505Z,4.00
2019-05-29T06:12:32.454Z,4.80
2019-05-29T06:13:32.484Z,4.50
2019-05-29T06:14:32.534Z,5.70
2019-05-29T06:15:32.488Z,2.40
2019-05-29T06:16:32.958Z,2.40
2019-05-29T06:17:32.508Z,3.20
2019-05-29T06:18:32.462Z,3.30
2019-05-29T06:19:32.742Z,3.50
2019-05-29T06:20:32.680Z,4.60
2019-05-29T06:21:32.567Z,2.10
2019-05-29T06:22:32.900Z,2.80
2019-05-29T06:23:32.797Z,3.80
2019-05-29T06:24:33.407Z,1.90
2019-05-29T06:25:33.861Z,3.30
2019-05-29T06:26:32.849Z,2.80
2019-05-29T06:27:33.530Z,2.70
2019-05-29T06:28:33.023Z,3.40
2019-05-29T06:29:33.506Z,3.00
2019-05-29T06:30:34.056Z,3.60
2019-05-29T06:31:33.318Z,2.90
2019-05-29T06:32:33.435Z,4.80
2019-05-29T06:33:33.408Z,1.90
2019-05-29T06:34:33.507Z,3.50
2019-05-29T06:35:34.015Z,2.80
2019-05-29T06:36:33.442Z,2.40
2019-05-29T06:37:33.630Z,2.40
2019-05-29T06:38:33.593Z,2.70
2019-05-29T06:39:33.486Z,2.20
2019-05-29T06:40:33.928Z,2.20
2019-05-29T06:41:33.560Z,3.30
2019-05-29T06:42:33.521Z,2.90
2019-05-29T06:43:33.731Z,2.20
2019-05-29T06:44:34.143Z,1.80
2019-05-29T06:45:33.663Z,4.40
2019-05-29T06:46:34.220Z,2.40
2019-05-29T06:47:34.129Z,2.40
2019-05-29T06:48:44.774Z,2.90
2019-05-29T06:49:32.505Z,2.20
2019-05-29T06:50:32.570Z,1.80
2019-05-29T06:51:32.554Z,2.50
2019-05-29T06:52:32.523Z,2.50
2019-05-29T06:53:32.532Z,2.10
2019-05-29T06:54:32.483Z,2.80
2019-05-29T06:55:32.540Z,2.30
2019-05-29T06:56:32.557Z,2.60
2019-05-29T06:57:32.498Z,2.70
2019-05-29T06:58:32.530Z,2.40
2019-05-29T06:59:32.516Z,2.70
2019-05-29T07:00:35.558Z,1.80
2019-05-29T07:01:32.523Z,9.40
2019-05-29T07:02:32.569Z,3.70
2019-05-29T07:03:32.497Z,2.90
2019-05-29T07:04:32.522Z,7.40
2019-05-29T07:05:32.520Z,2.50
2019-05-29T07:06:32.492Z,1.70
2019-05-29T07:07:32.530Z,3.80
2019-05-29T07:08:39.103Z,2.80
2019-05-29T07:09:32.563Z,2.30
2019-05-29T07:10:32.528Z,3.10
2019-05-29T07:11:32.571Z,2.70
2019-05-29T07:12:32.494Z,2.60
2019-05-29T07:13:35.114Z,2.20
2019-05-29T07:14:32.580Z,2.10
2019-05-29T07:15:32.515Z,2.70
2019-05-29T07:16:43.877Z,2.50
2019-05-29T07:17:32.527Z,2.30
2019-05-29T07:18:32.577Z,3.20
2019-05-29T07:19:47.405Z,2.10
2019-05-29T07:20:32.582Z,2.80
2019-05-29T07:21:32.556Z,3.00
2019-05-29T07:22:32.558Z,1.60
2019-05-29T07:23:32.542Z,3.30
2019-05-29T07:24:32.501Z,2.00
2019-05-29T07:25:32.542Z,2.20
2019-05-29T07:26:32.593Z,3.00
2019-05-29T07:27:32.518Z,1.90
2019-05-29T07:28:32.549Z,1.50
2019-05-29T07:29:32.538Z,1.60
2019-05-29T07:30:32.508Z,1.90
2019-05-29T07:31:32.542Z,1.80
2019-05-29T07:32:32.579Z,3.10
2019-05-29T07:33:32.539Z,2.80
2019-05-29T07:34:49.924Z,3.10
2019-05-29T07:35:32.538Z,2.50
2019-05-29T07:36:32.528Z,2.10
2019-05-29T07:37:32.596Z,2.60
2019-05-29T07:38:32.552Z,1.70
2019-05-29T07:39:32.557Z,1.70
2019-05-29T07:40:35.709Z,2.20
2019-05-29T07:41:32.593Z,1.60
2019-05-29T07:42:32.515Z,2.50
2019-05-29T07:43:32.564Z,2.20
2019-05-29T07:44:32.626Z,1.70
2019-05-29T07:45:32.537Z,4.20
2019-05-29T07:46:32.537Z,2.50
2019-05-29T07:47:32.623Z,2.00
2019-05-29T07:48:32.544Z,1.90
2019-05-29T07:49:39.153Z,2.30
2019-05-29T07:50:32.567Z,1.70
2019-05-29T07:51:32.637Z,2.10
2019-05-29T07:52:32.585Z,1.90
2019-05-29T07:53:33.751Z,3.20
2019-05-29T07:54:32.569Z,2.40
2019-05-29T07:55:32.569Z,1.60
2019-05-29T07:56:32.619Z,2.30
2019-05-29T07:57:32.550Z,2.30
2019-05-29T07:58:32.573Z,1.70
2019-05-29T07:59:32.606Z,1.80
2019-05-29T08:00:35.568Z,2.90
2019-05-29T08:01:32.580Z,1.80
2019-05-29T08:02:32.586Z,2.50
2019-05-29T08:03:32.554Z,1.90
2019-05-29T08:04:32.578Z,2.00
2019-05-29T08:05:32.623Z,2.00
2019-05-29T08:06:32.616Z,1.90
2019-05-29T08:07:32.597Z,2.30
2019-05-29T08:08:32.599Z,1.80
2019-05-29T08:09:32.541Z,1.40
2019-05-29T08:10:32.580Z,2.20
2019-05-29T08:11:32.620Z,2.50
2019-05-29T08:12:32.558Z,2.40
2019-05-29T08:13:32.588Z,1.50
2019-05-29T08:14:32.640Z,1.80
2019-05-29T08:15:32.534Z,1.70
2019-05-29T08:16:32.569Z,1.70
2019-05-29T08:17:32.609Z,2.50
2019-05-29T08:18:32.568Z,1.70
2019-05-29T08:19:32.593Z,2.50
2019-05-29T08:20:32.583Z,3.00
2019-05-29T08:21:32.557Z,2.00
2019-05-29T08:22:34.538Z,2.50
2019-05-29T08:23:32.644Z,2.90
2019-05-29T08:24:32.571Z,3.00
2019-05-29T08:25:32.594Z,2.80
2019-05-29T08:26:32.633Z,2.00
2019-05-29T08:27:32.594Z,5.40
2019-05-29T08:28:32.620Z,2.70
2019-05-29T08:29:32.685Z,1.80
2019-05-29T08:30:36.203Z,2.00
2019-05-29T08:31:32.634Z,2.40
2019-05-29T08:32:32.653Z,3.20
2019-05-29T08:33:32.640Z,3.80
2019-05-29T08:34:32.657Z,2.80
2019-05-29T08:35:32.671Z,2.90
2019-05-29T08:36:32.636Z,1.50
2019-05-29T08:37:32.646Z,1.50
2019-05-29T08:38:32.695Z,2.90
2019-05-29T08:39:36.659Z,1.60
2019-05-29T08:40:32.653Z,2.20
2019-05-29T08:41:32.702Z,2.00
2019-05-29T08:42:32.632Z,1.60
2019-05-29T08:43:32.646Z,2.20
2019-05-29T08:44:32.684Z,2.00
2019-05-29T08:45:32.623Z,1.70
2019-05-29T08:46:33.479Z,2.00
2019-05-29T08:47:32.661Z,2.00
2019-05-29T08:48:32.612Z,3.80
2019-05-29T08:49:32.666Z,2.00
2019-05-29T08:50:32.658Z,1.40
2019-05-29T08:51:32.626Z,2.10
2019-05-29T08:52:32.666Z,1.50
2019-05-29T08:53:32.700Z,1.50
2019-05-29T08:54:33.333Z,2.00
2019-05-29T08:55:32.657Z,1.50
2019-05-29T08:56:32.673Z,2.50
2019-05-29T08:57:32.691Z,1.50
2019-05-29T08:58:32.654Z,3.20
2019-05-29T08:59:32.690Z,1.50
2019-05-29T09:00:32.628Z,3.00
2019-05-29T09:01:32.673Z,1.40
2019-05-29T09:02:32.701Z,2.20
2019-05-29T09:03:32.662Z,1.50
2019-05-29T09:04:32.813Z,1.30
2019-05-29T09:05:32.708Z,3.50
2019-05-29T09:06:32.636Z,5.60
2019-05-29T09:07:32.677Z,3.50
2019-05-29T09:08:32.709Z,1.70
2019-05-29T09:09:32.622Z,6.10
2019-05-29T09:10:32.681Z,3.60
2019-05-29T09:11:32.700Z,2.00
2019-05-29T09:12:32.671Z,1.40
2019-05-29T09:13:32.681Z,77.10
2019-05-29T09:14:32.718Z,1999.90
2019-05-29T09:15:32.670Z,1567.30
2019-05-29T09:16:32.661Z,1999.90
2019-05-29T09:17:34.540Z,495.00
2019-05-29T09:18:32.721Z,188.70
2019-05-29T09:19:32.711Z,94.20
2019-05-29T09:20:57.881Z,17.80
2019-05-29T09:21:32.695Z,6.90
2019-05-29T09:22:32.684Z,9.00
2019-05-29T09:23:32.743Z,12.00
2019-05-29T09:24:32.708Z,9.60
2019-05-29T09:25:32.684Z,3.00
2019-05-29T09:26:32.725Z,4.00
2019-05-29T09:27:32.641Z,2.60
2019-05-29T09:28:32.704Z,4.50
2019-05-29T09:29:32.711Z,16.80
2019-05-29T09:30:32.652Z,52.50
2019-05-29T09:31:32.681Z,14.40
2019-05-29T09:33:32.719Z,38.00
2019-05-29T09:34:32.695Z,205.50
2019-05-29T09:35:32.714Z,27.90
2019-05-29T09:36:32.691Z,230.80
2019-05-29T09:37:32.686Z,303.70
2019-05-29T09:38:32.730Z,118.00
2019-05-29T09:39:32.742Z,61.20
2019-05-29T09:40:32.706Z,512.20
2019-05-29T09:41:32.727Z,212.20
2019-05-29T09:42:32.719Z,8.10
2019-05-29T09:43:32.694Z,2.70
2019-05-29T09:44:38.951Z,4.90
2019-05-29T09:45:32.675Z,10.00
2019-05-29T09:46:32.745Z,10.40
2019-05-29T09:47:32.692Z,5.40
2019-05-29T09:48:48.550Z,10.50
2019-05-29T09:49:32.707Z,5.40
2019-05-29T09:50:48.766Z,6.70
2019-05-29T09:51:32.701Z,4.30
2019-05-29T09:52:32.733Z,3.30
2019-05-29T09:53:32.699Z,1.80
2019-05-29T09:54:32.842Z,3.90
2019-05-29T09:55:32.710Z,1.90
2019-05-29T09:56:32.737Z,2.00
2019-05-29T09:57:32.684Z,2.20
2019-05-29T09:58:32.730Z,1.30
2019-05-29T09:59:32.741Z,1.30
2019-05-29T10:00:32.727Z,1.60
2019-05-29T10:01:32.720Z,3.20
2019-05-29T10:02:32.742Z,3.90
2019-05-29T10:03:32.775Z,13.40
2019-05-29T10:04:32.726Z,3.40
2019-05-29T10:05:32.739Z,2.30
2019-05-29T10:06:32.746Z,568.60
2019-05-29T10:07:32.704Z,76.10
2019-05-29T10:08:32.704Z,92.60
2019-05-29T10:09:32.692Z,3.30
2019-05-29T10:10:32.746Z,1.80
2019-05-29T10:11:32.718Z,2.00
2019-05-29T10:12:32.687Z,3.50
2019-05-29T10:13:32.727Z,2.10
2019-05-29T10:14:32.778Z,3.70
2019-05-29T10:15:32.707Z,5.60
2019-05-29T10:16:32.749Z,1.80
2019-05-29T10:17:32.768Z,2.40
2019-05-29T10:18:33.059Z,2.30
2019-05-29T10:19:32.733Z,3.10
2019-05-29T10:20:32.740Z,1.50
2019-05-29T10:21:40.221Z,2.60
2019-05-29T10:22:32.748Z,2.30
2019-05-29T10:23:32.764Z,2.70
2019-05-29T10:24:32.732Z,2.30
2019-05-29T10:25:32.735Z,7.80
2019-05-29T10:26:32.772Z,3.00
2019-05-29T10:27:32.718Z,5.60
2019-05-29T10:28:49.303Z,7.50
2019-05-29T10:29:32.731Z,2.30
2019-05-29T10:30:32.805Z,10.30
2019-05-29T10:31:32.750Z,7.70
2019-05-29T10:32:32.750Z,2.50
2019-05-29T10:33:32.720Z,2.30
2019-05-29T10:34:32.762Z,2.70
2019-05-29T10:35:32.786Z,3.50
2019-05-29T10:36:32.770Z,21.50
2019-05-29T10:37:32.749Z,8.50
2019-05-29T10:38:32.776Z,1.60
2019-05-29T10:39:32.765Z,7.20
2019-05-29T10:40:32.761Z,3.40
2019-05-29T10:41:32.776Z,5.40
2019-05-29T10:42:32.772Z,34.00
2019-05-29T10:43:34.459Z,11.30
2019-05-29T10:44:32.769Z,99.40
2019-05-29T10:45:32.771Z,44.20
2019-05-29T10:46:32.758Z,19.60
2019-05-29T10:47:32.777Z,4.60
2019-05-29T10:48:32.750Z,15.20
2019-05-29T10:49:32.755Z,34.60
2019-05-29T10:50:32.789Z,5.80
2019-05-29T10:51:32.758Z,43.00
2019-05-29T10:52:32.771Z,17.50
2019-05-29T10:53:32.780Z,24.20
2019-05-29T10:54:32.772Z,106.50
2019-05-29T10:55:32.751Z,125.00
2019-05-29T10:56:32.793Z,19.90
2019-05-29T10:57:32.802Z,41.70
2019-05-29T10:58:48.003Z,47.60
2019-05-29T10:59:32.805Z,90.40
2019-05-29T11:00:32.806Z,10.80
2019-05-29T11:01:32.781Z,11.90
2019-05-29T11:02:32.792Z,5.80
2019-05-29T11:03:32.753Z,12.00
2019-05-29T11:04:32.780Z,8.00
2019-05-29T11:05:33.135Z,6.10
2019-05-29T11:06:32.735Z,8.40
2019-05-29T11:07:33.149Z,6.20
2019-05-29T11:08:32.756Z,4.60
2019-05-29T11:09:43.851Z,8.20
2019-05-29T11:10:32.797Z,16.50
2019-05-29T11:11:32.809Z,44.50
2019-05-29T11:12:32.807Z,16.90
2019-05-29T11:13:32.763Z,8.00
2019-05-29T11:14:32.794Z,7.40
2019-05-29T11:15:32.781Z,23.40
2019-05-29T11:16:32.789Z,39.50
2019-05-29T11:17:33.007Z,8.20
2019-05-29T11:18:32.742Z,9.60
2019-05-29T11:19:32.766Z,15.30
2019-05-29T11:20:32.795Z,22.80
2019-05-29T11:21:32.826Z,16.10
2019-05-29T11:22:34.282Z,7.70
2019-05-29T11:23:32.773Z,33.40
2019-05-29T11:24:32.825Z,17.50
2019-05-29T11:25:32.784Z,8.20
2019-05-29T11:26:32.800Z,17.50
2019-05-29T11:27:32.828Z,8.80
2019-05-29T11:28:32.819Z,7.10
2019-05-29T11:29:32.815Z,8.10
2019-05-29T11:30:32.801Z,16.70
2019-05-29T11:31:32.820Z,24.90
2019-05-29T11:32:32.871Z,8.00
2019-05-29T11:33:32.774Z,9.10
2019-05-29T11:34:32.817Z,22.10
2019-05-29T11:35:32.821Z,18.00
2019-05-29T11:36:32.771Z,11.50
2019-05-29T11:37:32.813Z,11.80
2019-05-29T11:38:32.803Z,4.90
2019-05-29T11:39:32.843Z,10.60
2019-05-29T11:40:32.857Z,9.70
2019-05-29T11:41:32.833Z,7.50
2019-05-29T11:42:32.764Z,7.20
2019-05-29T11:43:32.807Z,6.80
2019-05-29T11:44:32.816Z,20.70
2019-05-29T11:45:35.331Z,3.80
2019-05-29T11:46:32.826Z,4.30
2019-05-29T11:47:32.811Z,8.20
2019-05-29T11:48:32.805Z,46.60
2019-05-29T11:49:32.804Z,8.50
2019-05-29T11:50:32.821Z,14.40
2019-05-29T11:51:32.774Z,11.70
2019-05-29T11:52:42.391Z,8.90
2019-05-29T11:53:34.016Z,20.50
2019-05-29T11:54:32.860Z,7.20
2019-05-29T11:55:32.802Z,41.30
2019-05-29T11:56:32.843Z,10.20
2019-05-29T11:57:32.907Z,12.50
2019-05-29T11:58:32.815Z,21.10
2019-05-29T11:59:32.812Z,13.10
2019-05-29T12:00:32.834Z,27.10
2019-05-29T12:01:49.214Z,7.80
2019-05-29T12:02:32.882Z,32.00
2019-05-29T12:03:32.863Z,50.60
2019-05-29T12:04:32.831Z,7.90
2019-05-29T12:05:32.822Z,9.90
2019-05-29T12:06:32.833Z,30.70
2019-05-29T12:07:32.814Z,62.30
2019-05-29T12:08:32.844Z,27.50
2019-05-29T12:09:33.722Z,48.20
2019-05-29T12:10:32.828Z,73.30
2019-05-29T12:11:32.811Z,142.10
2019-05-29T12:12:32.784Z,7.40
2019-05-29T12:13:32.825Z,17.00
2019-05-29T12:14:32.835Z,68.80
2019-05-29T12:15:32.865Z,27.60
2019-05-29T12:16:32.830Z,12.60
2019-05-29T12:17:32.927Z,44.40
2019-05-29T12:18:32.790Z,8.00
2019-05-29T12:19:32.827Z,19.10
2019-05-29T12:20:32.843Z,13.90
2019-05-29T12:21:32.825Z,11.00
2019-05-29T12:22:32.854Z,24.00
2019-05-29T12:23:32.854Z,243.50
2019-05-29T12:24:32.835Z,46.00
2019-05-29T12:25:32.832Z,116.30
2019-05-29T12:26:32.850Z,66.00
2019-05-29T12:27:32.891Z,100.10
2019-05-29T12:28:32.856Z,17.20
2019-05-29T12:29:32.866Z,11.70
2019-05-29T12:30:32.875Z,13.60
2019-05-29T12:31:32.871Z,61.70
2019-05-29T12:32:32.856Z,81.50
2019-05-29T12:33:32.876Z,38.60
2019-05-29T12:34:32.863Z,105.20
2019-05-29T12:35:32.860Z,46.90
2019-05-29T12:36:32.814Z,7.90
2019-05-29T12:37:32.831Z,80.70
2019-05-29T12:38:32.850Z,9.20
2019-05-29T12:39:32.829Z,12.40
2019-05-29T12:40:32.874Z,5.90
2019-05-29T12:41:32.855Z,13.70
2019-05-29T12:42:32.844Z,9.70
2019-05-29T12:43:32.849Z,18.50
2019-05-29T12:44:32.872Z,158.30
2019-05-29T12:45:32.897Z,25.80
2019-05-29T12:46:32.875Z,25.00
2019-05-29T12:47:32.843Z,28.20
2019-05-29T12:48:32.874Z,51.90
2019-05-29T12:49:32.848Z,66.30
2019-05-29T12:50:34.548Z,13.60
2019-05-29T12:51:32.849Z,29.70
2019-05-29T12:52:32.887Z,28.00
2019-05-29T12:53:32.875Z,63.50
2019-05-29T12:54:32.882Z,28.70
2019-05-29T12:55:32.853Z,19.50
2019-05-29T12:56:32.876Z,27.90
2019-05-29T12:57:32.894Z,21.80
2019-05-29T12:58:32.883Z,19.50
2019-05-29T12:59:32.865Z,13.60
2019-05-29T13:00:32.842Z,22.00
2019-05-29T13:01:32.852Z,25.80
2019-05-29T13:02:32.898Z,30.40
2019-05-29T13:03:32.892Z,68.00
2019-05-29T13:05:02.520Z,33.10
2019-05-29T13:05:34.886Z,14.40
2019-05-29T13:06:33.002Z,21.30
2019-05-29T13:07:32.876Z,12.90
2019-05-29T13:08:32.923Z,9.80
2019-05-29T13:09:32.865Z,9.50